sensor_id;sensor_type;location;lat;lon;timestamp;pressure;altitude;pressure_sealevel;temperature;humidity
9672;BME280;4874;43.568;27.824;2023-02-14T00:02:22;100401.41;;;3.39;100.00
9672;BME280;4874;43.568;27.824;2023-02-14T00:04:49;100393.13;;;3.28;100.00
9672;BME280;4874;43.568;27.824;2023-02-14T00:07:16;100400.81;;;3.33;100.00
9672;BME280;4874;43.568;27.824;2023-02-14T00:09:43;100396.13;;;3.19;100.00
9672;BME280;4874;43.568;27.824;2023-02-14T00:12:09;100388.84;;;3.06;100.00
9672;BME280;4874;43.568;27.824;2023-02-14T00:14:36;100389.44;;;3.12;100.00
9672;BME280;4874;43.568;27.824;2023-02-14T00:17:22;100375.16;;;3.19;100.00
9672;BME280;4874;43.568;27.824;2023-02-14T00:19:48;100350.28;;;3.08;100.00
9672;BME280;4874;43.568;27.824;2023-02-14T00:22:15;100378.25;;;3.29;100.00
9672;BME280;4874;43.568;27.824;2023-02-14T00:24:42;100325.63;;;3.12;100.00
9672;BME280;4874;43.568;27.824;2023-02-14T00:27:09;100351.28;;;3.25;100.00
9672;BME280;4874;43.568;27.824;2023-02-14T00:29:36;100358.16;;;3.28;100.00
9672;BME280;4874;43.568;27.824;2023-02-14T00:32:02;100319.78;;;3.05;100.00
9672;BME280;4874;43.568;27.824;2023-02-14T00:34:29;100348.16;;;3.37;100.00
9672;BME280;4874;43.568;27.824;2023-02-14T00:36:58;100347.72;;;3.26;100.00
9672;BME280;4874;43.568;27.824;2023-02-14T00:39:25;100339.72;;;3.29;100.00
9672;BME280;4874;43.568;27.824;2023-02-14T00:41:52;100320.19;;;3.36;100.00
9672;BME280;4874;43.568;27.824;2023-02-14T00:44:19;100337.13;;;3.49;100.00
9672;BME280;4874;43.568;27.824;2023-02-14T00:46:46;100334.09;;;3.38;100.00
9672;BME280;4874;43.568;27.824;2023-02-14T00:49:13;100314.53;;;3.45;100.00
9672;BME280;4874;43.568;27.824;2023-02-14T00:51:39;100312.69;;;3.47;100.00
9672;BME280;4874;43.568;27.824;2023-02-14T00:54:06;100305.47;;;3.52;100.00
9672;BME280;4874;43.568;27.824;2023-02-14T00:56:32;100304.19;;;3.42;100.00
9672;BME280;4874;43.568;27.824;2023-02-14T00:58:59;100295.91;;;3.31;100.00
9672;BME280;4874;43.568;27.824;2023-02-14T01:01:26;100299.09;;;3.38;100.00
9672;BME280;4874;43.568;27.824;2023-02-14T01:03:53;100285.22;;;3.36;100.00
9672;BME280;4874;43.568;27.824;2023-02-14T01:06:19;100285.03;;;3.20;100.00
9672;BME280;4874;43.568;27.824;2023-02-14T01:08:46;100285.25;;;3.34;100.00
9672;BME280;4874;43.568;27.824;2023-02-14T01:11:14;100287.25;;;3.49;100.00
9672;BME280;4874;43.568;27.824;2023-02-14T01:13:41;100280.47;;;3.44;100.00
9672;BME280;4874;43.568;27.824;2023-02-14T01:16:11;100252.91;;;3.15;100.00
9672;BME280;4874;43.568;27.824;2023-02-14T01:18:39;100275.56;;;3.36;100.00
9672;BME280;4874;43.568;27.824;2023-02-14T01:21:15;100283.19;;;3.42;100.00
9672;BME280;4874;43.568;27.824;2023-02-14T01:23:43;100243.41;;;3.31;100.00
9672;BME280;4874;43.568;27.824;2023-02-14T01:26:10;100281.47;;;3.60;100.00
9672;BME280;4874;43.568;27.824;2023-02-14T01:28:37;100284.28;;;3.76;100.00
9672;BME280;4874;43.568;27.824;2023-02-14T01:31:09;100275.56;;;3.75;100.00
9672;BME280;4874;43.568;27.824;2023-02-14T01:33:37;100278.03;;;3.78;100.00
9672;BME280;4874;43.568;27.824;2023-02-14T01:36:04;100279.25;;;3.90;100.00
9672;BME280;4874;43.568;27.824;2023-02-14T01:38:32;100275.97;;;3.66;100.00
9672;BME280;4874;43.568;27.824;2023-02-14T01:40:58;100272.78;;;3.59;100.00
9672;BME280;4874;43.568;27.824;2023-02-14T01:43:26;100272.00;;;3.76;100.00
9672;BME280;4874;43.568;27.824;2023-02-14T01:45:53;100267.81;;;3.72;100.00
9672;BME280;4874;43.568;27.824;2023-02-14T01:48:20;100256.31;;;3.56;100.00
9672;BME280;4874;43.568;27.824;2023-02-14T01:50:50;100253.75;;;3.54;100.00
9672;BME280;4874;43.568;27.824;2023-02-14T01:53:25;100246.31;;;3.64;100.00
9672;BME280;4874;43.568;27.824;2023-02-14T01:56:04;100234.53;;;3.73;100.00
9672;BME280;4874;43.568;27.824;2023-02-14T01:58:36;100234.22;;;3.60;100.00
9672;BME280;4874;43.568;27.824;2023-02-14T02:01:03;100168.34;;;3.09;100.00
9672;BME280;4874;43.568;27.824;2023-02-14T02:03:37;100231.47;;;3.63;100.00
9672;BME280;4874;43.568;27.824;2023-02-14T02:08:38;100163.03;;;3.10;100.00
9672;BME280;4874;43.568;27.824;2023-02-14T02:11:07;100209.00;;;3.19;100.00
9672;BME280;4874;43.568;27.824;2023-02-14T02:13:33;100208.81;;;3.23;100.00
9672;BME280;4874;43.568;27.824;2023-02-14T02:16:17;100211.31;;;2.66;100.00
9672;BME280;4874;43.568;27.824;2023-02-14T02:19:11;100193.22;;;3.00;100.00
9672;BME280;4874;43.568;27.824;2023-02-14T02:21:56;100200.75;;;2.27;100.00
9672;BME280;4874;43.568;27.824;2023-02-14T02:24:34;100181.97;;;2.16;100.00
9672;BME280;4874;43.568;27.824;2023-02-14T02:27:24;100205.13;;;2.47;100.00
9672;BME280;4874;43.568;27.824;2023-02-14T02:50:18;100197.75;;;2.15;100.00
9672;BME280;4874;43.568;27.824;2023-02-14T02:56:06;100194.41;;;2.33;100.00
9672;BME280;4874;43.568;27.824;2023-02-14T02:58:57;100188.31;;;2.11;100.00
9672;BME280;4874;43.568;27.824;2023-02-14T03:01:28;100161.41;;;2.07;100.00
9672;BME280;4874;43.568;27.824;2023-02-14T03:03:59;100176.75;;;2.16;100.00
9672;BME280;4874;43.568;27.824;2023-02-14T03:06:47;100148.63;;;2.00;100.00
9672;BME280;4874;43.568;27.824;2023-02-14T03:14:34;100130.19;;;1.81;100.00
9672;BME280;4874;43.568;27.824;2023-02-14T03:20:13;100116.84;;;2.09;100.00
9672;BME280;4874;43.568;27.824;2023-02-14T03:23:13;100119.66;;;1.83;100.00
9672;BME280;4874;43.568;27.824;2023-02-14T03:28:36;100109.91;;;1.86;100.00
9672;BME280;4874;43.568;27.824;2023-02-14T03:31:14;100102.78;;;1.90;100.00
9672;BME280;4874;43.568;27.824;2023-02-14T03:33:55;100106.72;;;2.00;100.00
9672;BME280;4874;43.568;27.824;2023-02-14T03:36:37;100108.31;;;1.82;100.00
9672;BME280;4874;43.568;27.824;2023-02-14T03:42:13;100071.69;;;1.82;100.00
9672;BME280;4874;43.568;27.824;2023-02-14T03:44:41;100107.19;;;2.09;100.00
9672;BME280;4874;43.568;27.824;2023-02-14T03:47:16;100099.53;;;2.25;100.00
9672;BME280;4874;43.568;27.824;2023-02-14T03:49:47;100085.72;;;2.01;100.00
9672;BME280;4874;43.568;27.824;2023-02-14T03:52:17;100111.41;;;2.33;100.00
9672;BME280;4874;43.568;27.824;2023-02-14T03:54:45;100113.63;;;2.22;100.00
9672;BME280;4874;43.568;27.824;2023-02-14T03:57:20;100097.03;;;2.02;100.00
9672;BME280;4874;43.568;27.824;2023-02-14T03:59:49;100124.38;;;2.57;100.00
9672;BME280;4874;43.568;27.824;2023-02-14T04:02:24;100125.22;;;2.17;100.00
9672;BME280;4874;43.568;27.824;2023-02-14T04:04:53;100133.06;;;2.17;100.00
9672;BME280;4874;43.568;27.824;2023-02-14T04:07:22;100135.69;;;2.37;100.00
9672;BME280;4874;43.568;27.824;2023-02-14T04:09:49;100131.03;;;2.23;100.00
9672;BME280;4874;43.568;27.824;2023-02-14T04:12:16;100145.94;;;2.43;100.00
9672;BME280;4874;43.568;27.824;2023-02-14T04:14:51;100140.94;;;2.17;100.00
9672;BME280;4874;43.568;27.824;2023-02-14T04:17:18;100135.97;;;2.31;100.00
9672;BME280;4874;43.568;27.824;2023-02-14T04:20:04;100134.81;;;2.16;100.00
9672;BME280;4874;43.568;27.824;2023-02-14T04:22:30;100140.00;;;2.18;100.00
9672;BME280;4874;43.568;27.824;2023-02-14T04:24:57;100145.16;;;2.19;100.00
9672;BME280;4874;43.568;27.824;2023-02-14T04:27:24;100131.81;;;2.05;100.00
9672;BME280;4874;43.568;27.824;2023-02-14T04:29:50;100143.41;;;2.20;100.00
9672;BME280;4874;43.568;27.824;2023-02-14T04:32:20;100129.44;;;2.19;100.00
9672;BME280;4874;43.568;27.824;2023-02-14T04:34:48;100139.34;;;2.13;100.00
9672;BME280;4874;43.568;27.824;2023-02-14T04:37:17;100136.41;;;2.61;100.00
9672;BME280;4874;43.568;27.824;2023-02-14T04:39:44;100131.72;;;1.87;100.00
9672;BME280;4874;43.568;27.824;2023-02-14T04:42:11;100141.69;;;1.77;100.00
9672;BME280;4874;43.568;27.824;2023-02-14T04:44:37;100136.56;;;1.96;100.00
9672;BME280;4874;43.568;27.824;2023-02-14T04:47:04;100129.25;;;1.82;100.00
9672;BME280;4874;43.568;27.824;2023-02-14T04:49:32;100139.25;;;1.73;100.00
9672;BME280;4874;43.568;27.824;2023-02-14T04:51:59;100146.19;;;1.74;100.00
9672;BME280;4874;43.568;27.824;2023-02-14T04:54:26;100141.94;;;1.71;100.00
9672;BME280;4874;43.568;27.824;2023-02-14T04:56:52;100133.91;;;1.76;100.00
9672;BME280;4874;43.568;27.824;2023-02-14T04:59:19;100143.63;;;1.72;100.00
9672;BME280;4874;43.568;27.824;2023-02-14T05:01:47;100120.25;;;1.46;100.00
9672;BME280;4874;43.568;27.824;2023-02-14T05:04:14;100145.56;;;1.89;100.00
9672;BME280;4874;43.568;27.824;2023-02-14T05:06:41;100157.41;;;1.77;100.00
9672;BME280;4874;43.568;27.824;2023-02-14T05:09:08;100158.06;;;1.61;100.00
9672;BME280;4874;43.568;27.824;2023-02-14T05:11:34;100157.78;;;1.90;100.00
9672;BME280;4874;43.568;27.824;2023-02-14T05:14:01;100165.28;;;2.19;100.00
9672;BME280;4874;43.568;27.824;2023-02-14T05:16:29;100164.13;;;2.04;100.00
9672;BME280;4874;43.568;27.824;2023-02-14T05:18:56;100165.66;;;2.10;100.00
9672;BME280;4874;43.568;27.824;2023-02-14T05:21:23;100173.00;;;2.02;100.00
9672;BME280;4874;43.568;27.824;2023-02-14T05:23:49;100184.09;;;1.85;100.00
9672;BME280;4874;43.568;27.824;2023-02-14T05:26:16;100181.13;;;1.94;100.00
9672;BME280;4874;43.568;27.824;2023-02-14T05:28:43;100186.75;;;2.07;100.00
9672;BME280;4874;43.568;27.824;2023-02-14T05:31:09;100184.19;;;2.05;100.00
9672;BME280;4874;43.568;27.824;2023-02-14T05:33:36;100186.75;;;2.89;100.00
9672;BME280;4874;43.568;27.824;2023-02-14T05:36:03;100182.84;;;2.59;100.00
9672;BME280;4874;43.568;27.824;2023-02-14T05:38:30;100187.47;;;2.72;100.00
9672;BME280;4874;43.568;27.824;2023-02-14T05:40:58;100171.94;;;2.68;100.00
9672;BME280;4874;43.568;27.824;2023-02-14T05:43:25;100181.69;;;2.64;100.00
9672;BME280;4874;43.568;27.824;2023-02-14T05:45:52;100175.63;;;2.64;100.00
9672;BME280;4874;43.568;27.824;2023-02-14T05:48:20;100170.31;;;2.65;100.00
9672;BME280;4874;43.568;27.824;2023-02-14T05:50:46;100169.19;;;2.71;100.00
9672;BME280;4874;43.568;27.824;2023-02-14T05:53:14;100165.19;;;2.82;100.00
9672;BME280;4874;43.568;27.824;2023-02-14T05:55:41;100167.34;;;2.93;100.00
9672;BME280;4874;43.568;27.824;2023-02-14T05:58:08;100167.06;;;2.99;100.00
9672;BME280;4874;43.568;27.824;2023-02-14T06:00:34;100172.09;;;3.42;100.00
9672;BME280;4874;43.568;27.824;2023-02-14T06:03:04;100172.72;;;3.47;100.00
9672;BME280;4874;43.568;27.824;2023-02-14T06:05:31;100166.00;;;3.03;100.00
9672;BME280;4874;43.568;27.824;2023-02-14T06:07:58;100166.28;;;2.97;100.00
9672;BME280;4874;43.568;27.824;2023-02-14T06:10:26;100134.16;;;2.92;100.00
9672;BME280;4874;43.568;27.824;2023-02-14T06:12:53;100170.84;;;3.12;100.00
9672;BME280;4874;43.568;27.824;2023-02-14T06:15:20;100172.94;;;2.65;100.00
9672;BME280;4874;43.568;27.824;2023-02-14T06:17:53;100163.31;;;3.04;100.00
9672;BME280;4874;43.568;27.824;2023-02-14T06:20:20;100151.34;;;3.17;100.00
9672;BME280;4874;43.568;27.824;2023-02-14T06:22:47;100155.38;;;3.06;100.00
9672;BME280;4874;43.568;27.824;2023-02-14T06:25:14;100151.28;;;3.19;100.00
9672;BME280;4874;43.568;27.824;2023-02-14T06:27:41;100149.16;;;3.08;100.00
9672;BME280;4874;43.568;27.824;2023-02-14T06:30:09;100111.56;;;3.26;100.00
9672;BME280;4874;43.568;27.824;2023-02-14T06:32:36;100147.75;;;3.38;100.00
9672;BME280;4874;43.568;27.824;2023-02-14T06:35:03;100095.69;;;2.92;100.00
9672;BME280;4874;43.568;27.824;2023-02-14T06:37:30;100152.00;;;3.59;100.00
9672;BME280;4874;43.568;27.824;2023-02-14T06:39:57;100142.22;;;3.63;100.00
9672;BME280;4874;43.568;27.824;2023-02-14T06:42:23;100146.47;;;3.47;100.00
9672;BME280;4874;43.568;27.824;2023-02-14T06:44:50;100141.13;;;3.67;100.00
9672;BME280;4874;43.568;27.824;2023-02-14T06:47:17;100142.78;;;3.70;100.00
9672;BME280;4874;43.568;27.824;2023-02-14T06:49:44;100132.53;;;3.82;100.00
9672;BME280;4874;43.568;27.824;2023-02-14T06:52:10;100135.72;;;3.89;100.00
9672;BME280;4874;43.568;27.824;2023-02-14T06:54:37;100142.88;;;3.85;100.00
9672;BME280;4874;43.568;27.824;2023-02-14T06:57:04;100148.22;;;3.84;100.00
9672;BME280;4874;43.568;27.824;2023-02-14T06:59:30;100163.59;;;3.91;100.00
9672;BME280;4874;43.568;27.824;2023-02-14T07:01:57;100160.69;;;3.97;100.00
9672;BME280;4874;43.568;27.824;2023-02-14T07:04:24;100157.44;;;3.92;100.00
9672;BME280;4874;43.568;27.824;2023-02-14T07:06:50;100155.03;;;4.40;100.00
9672;BME280;4874;43.568;27.824;2023-02-14T07:09:17;100159.72;;;4.68;100.00
9672;BME280;4874;43.568;27.824;2023-02-14T07:11:44;100137.06;;;4.65;100.00
9672;BME280;4874;43.568;27.824;2023-02-14T07:14:12;100151.63;;;4.38;100.00
9672;BME280;4874;43.568;27.824;2023-02-14T07:16:39;100158.41;;;5.09;100.00
9672;BME280;4874;43.568;27.824;2023-02-14T07:19:05;100155.03;;;4.57;100.00
9672;BME280;4874;43.568;27.824;2023-02-14T07:21:32;100148.66;;;4.10;100.00
9672;BME280;4874;43.568;27.824;2023-02-14T07:23:59;100139.97;;;4.76;100.00
9672;BME280;4874;43.568;27.824;2023-02-14T07:26:26;100146.56;;;4.51;100.00
9672;BME280;4874;43.568;27.824;2023-02-14T07:28:53;100144.41;;;4.08;100.00
9672;BME280;4874;43.568;27.824;2023-02-14T07:31:19;100147.13;;;4.74;100.00
9672;BME280;4874;43.568;27.824;2023-02-14T07:33:52;100141.56;;;4.63;100.00
9672;BME280;4874;43.568;27.824;2023-02-14T07:36:18;100137.47;;;4.91;100.00
9672;BME280;4874;43.568;27.824;2023-02-14T07:38:45;100139.94;;;4.78;100.00
9672;BME280;4874;43.568;27.824;2023-02-14T07:41:12;100135.19;;;4.85;100.00
9672;BME280;4874;43.568;27.824;2023-02-14T07:43:38;100125.59;;;5.32;100.00
9672;BME280;4874;43.568;27.824;2023-02-14T07:46:05;100114.31;;;5.14;100.00
9672;BME280;4874;43.568;27.824;2023-02-14T07:48:32;100126.88;;;4.92;100.00
9672;BME280;4874;43.568;27.824;2023-02-14T07:51:00;100114.69;;;5.55;100.00
9672;BME280;4874;43.568;27.824;2023-02-14T07:53:28;100115.84;;;5.80;100.00
9672;BME280;4874;43.568;27.824;2023-02-14T07:55:54;100105.50;;;5.77;100.00
9672;BME280;4874;43.568;27.824;2023-02-14T07:58:21;100107.34;;;6.07;100.00
9672;BME280;4874;43.568;27.824;2023-02-14T08:00:48;100106.09;;;5.98;100.00
9672;BME280;4874;43.568;27.824;2023-02-14T08:03:17;100093.81;;;5.81;100.00
9672;BME280;4874;43.568;27.824;2023-02-14T08:05:44;100104.44;;;6.55;100.00
9672;BME280;4874;43.568;27.824;2023-02-14T08:08:27;100101.31;;;6.05;100.00
9672;BME280;4874;43.568;27.824;2023-02-14T08:10:54;100102.25;;;7.05;100.00
9672;BME280;4874;43.568;27.824;2023-02-14T08:13:21;100090.41;;;6.40;100.00
9672;BME280;4874;43.568;27.824;2023-02-14T08:15:48;100110.63;;;6.40;100.00
9672;BME280;4874;43.568;27.824;2023-02-14T08:18:37;100100.50;;;6.18;100.00
9672;BME280;4874;43.568;27.824;2023-02-14T08:21:07;100101.38;;;6.19;100.00
9672;BME280;4874;43.568;27.824;2023-02-14T08:23:36;100107.84;;;6.57;100.00
9672;BME280;4874;43.568;27.824;2023-02-14T08:26:03;100067.63;;;6.39;100.00
9672;BME280;4874;43.568;27.824;2023-02-14T08:28:30;100101.56;;;6.59;100.00
9672;BME280;4874;43.568;27.824;2023-02-14T08:30:58;100110.66;;;6.10;100.00
9672;BME280;4874;43.568;27.824;2023-02-14T08:33:26;100102.69;;;5.65;100.00
9672;BME280;4874;43.568;27.824;2023-02-14T08:35:53;100093.22;;;6.37;100.00
9672;BME280;4874;43.568;27.824;2023-02-14T08:38:20;100096.47;;;5.97;100.00
9672;BME280;4874;43.568;27.824;2023-02-14T08:40:47;100084.47;;;5.76;100.00
9672;BME280;4874;43.568;27.824;2023-02-14T08:43:13;100100.72;;;6.00;100.00
9672;BME280;4874;43.568;27.824;2023-02-14T08:45:41;100093.75;;;5.83;100.00
9672;BME280;4874;43.568;27.824;2023-02-14T08:48:10;100093.63;;;5.86;100.00
9672;BME280;4874;43.568;27.824;2023-02-14T08:50:38;100098.69;;;6.05;100.00
9672;BME280;4874;43.568;27.824;2023-02-14T08:53:09;100099.63;;;5.88;100.00
9672;BME280;4874;43.568;27.824;2023-02-14T08:55:37;100092.41;;;5.45;100.00
9672;BME280;4874;43.568;27.824;2023-02-14T08:58:04;100082.03;;;5.57;100.00
9672;BME280;4874;43.568;27.824;2023-02-14T09:00:32;100063.50;;;5.59;100.00
9672;BME280;4874;43.568;27.824;2023-02-14T09:02:59;100049.03;;;5.21;100.00
9672;BME280;4874;43.568;27.824;2023-02-14T09:05:26;100083.13;;;5.84;100.00
9672;BME280;4874;43.568;27.824;2023-02-14T09:07:52;100095.63;;;6.56;100.00
9672;BME280;4874;43.568;27.824;2023-02-14T09:10:22;100087.47;;;6.01;100.00
9672;BME280;4874;43.568;27.824;2023-02-14T09:12:50;100082.25;;;6.73;100.00
9672;BME280;4874;43.568;27.824;2023-02-14T09:15:17;100075.88;;;6.33;100.00
9672;BME280;4874;43.568;27.824;2023-02-14T09:17:43;100080.25;;;6.62;100.00
9672;BME280;4874;43.568;27.824;2023-02-14T09:20:12;100077.59;;;6.48;100.00
9672;BME280;4874;43.568;27.824;2023-02-14T09:22:39;100069.16;;;6.71;100.00
9672;BME280;4874;43.568;27.824;2023-02-14T09:25:06;100052.16;;;6.47;100.00
9672;BME280;4874;43.568;27.824;2023-02-14T09:27:33;100072.53;;;7.30;100.00
9672;BME280;4874;43.568;27.824;2023-02-14T09:30:00;100071.66;;;7.29;100.00
9672;BME280;4874;43.568;27.824;2023-02-14T09:32:27;100064.66;;;7.42;100.00
9672;BME280;4874;43.568;27.824;2023-02-14T09:34:54;100062.63;;;7.33;100.00
9672;BME280;4874;43.568;27.824;2023-02-14T09:37:21;100070.81;;;7.29;100.00
9672;BME280;4874;43.568;27.824;2023-02-14T09:39:48;100068.78;;;7.20;100.00
9672;BME280;4874;43.568;27.824;2023-02-14T09:42:47;100067.28;;;7.83;100.00
9672;BME280;4874;43.568;27.824;2023-02-14T09:45:28;100071.88;;;7.93;100.00
9672;BME280;4874;43.568;27.824;2023-02-14T09:48:05;100075.25;;;7.69;100.00
9672;BME280;4874;43.568;27.824;2023-02-14T09:50:41;100070.53;;;7.74;100.00
9672;BME280;4874;43.568;27.824;2023-02-14T09:53:23;100036.38;;;7.71;100.00
9672;BME280;4874;43.568;27.824;2023-02-14T09:58:53;100066.19;;;7.73;100.00
9672;BME280;4874;43.568;27.824;2023-02-14T10:07:17;100048.88;;;7.81;100.00
9672;BME280;4874;43.568;27.824;2023-02-14T10:10:09;100052.00;;;8.27;100.00
9672;BME280;4874;43.568;27.824;2023-02-14T10:12:39;100047.22;;;9.07;100.00
9672;BME280;4874;43.568;27.824;2023-02-14T10:15:16;100050.66;;;8.47;100.00
9672;BME280;4874;43.568;27.824;2023-02-14T10:20:32;100037.53;;;8.70;100.00
9672;BME280;4874;43.568;27.824;2023-02-14T10:23:32;100032.63;;;8.64;100.00
9672;BME280;4874;43.568;27.824;2023-02-14T10:26:02;100031.66;;;8.78;100.00
9672;BME280;4874;43.568;27.824;2023-02-14T10:28:47;100034.25;;;8.79;100.00
9672;BME280;4874;43.568;27.824;2023-02-14T10:31:40;100019.47;;;9.00;100.00
9672;BME280;4874;43.568;27.824;2023-02-14T10:42:37;100004.03;;;9.30;100.00
9672;BME280;4874;43.568;27.824;2023-02-14T10:45:52;100004.72;;;9.09;100.00
9672;BME280;4874;43.568;27.824;2023-02-14T10:48:43;100011.16;;;9.17;99.28
9672;BME280;4874;43.568;27.824;2023-02-14T10:54:24;99998.28;;;9.36;98.60
9672;BME280;4874;43.568;27.824;2023-02-14T10:57:01;99982.22;;;9.27;100.00
9672;BME280;4874;43.568;27.824;2023-02-14T11:02:29;99993.44;;;9.54;92.28
9672;BME280;4874;43.568;27.824;2023-02-14T11:04:58;99984.41;;;9.57;93.51
9672;BME280;4874;43.568;27.824;2023-02-14T11:07:25;99991.53;;;9.80;92.17
9672;BME280;4874;43.568;27.824;2023-02-14T11:09:52;99976.00;;;10.21;88.14
9672;BME280;4874;43.568;27.824;2023-02-14T11:12:32;99984.31;;;9.58;88.67
9672;BME280;4874;43.568;27.824;2023-02-14T11:17:41;99969.88;;;9.38;89.00
9672;BME280;4874;43.568;27.824;2023-02-14T11:20:40;99975.31;;;10.06;85.95
9672;BME280;4874;43.568;27.824;2023-02-14T11:23:25;99979.22;;;9.79;82.65
9672;BME280;4874;43.568;27.824;2023-02-14T11:25:53;99967.91;;;9.88;81.88
9672;BME280;4874;43.568;27.824;2023-02-14T11:28:21;99967.88;;;9.29;81.45
9672;BME280;4874;43.568;27.824;2023-02-14T11:30:49;99973.41;;;9.26;80.77
9672;BME280;4874;43.568;27.824;2023-02-14T11:33:33;99958.19;;;9.41;83.39
9672;BME280;4874;43.568;27.824;2023-02-14T11:36:01;99949.72;;;9.36;82.52
9672;BME280;4874;43.568;27.824;2023-02-14T11:38:34;99971.06;;;8.98;81.81
9672;BME280;4874;43.568;27.824;2023-02-14T11:41:05;99970.25;;;9.21;81.69
9672;BME280;4874;43.568;27.824;2023-02-14T11:43:41;99950.25;;;9.65;80.32
9672;BME280;4874;43.568;27.824;2023-02-14T11:49:05;99955.91;;;8.52;85.82
9672;BME280;4874;43.568;27.824;2023-02-14T11:51:37;99950.69;;;8.75;85.95
9672;BME280;4874;43.568;27.824;2023-02-14T11:54:11;99952.56;;;9.22;84.63
9672;BME280;4874;43.568;27.824;2023-02-14T11:59:11;99943.41;;;9.02;84.40
9672;BME280;4874;43.568;27.824;2023-02-14T12:01:39;99939.69;;;8.69;86.31
9672;BME280;4874;43.568;27.824;2023-02-14T12:04:12;99937.97;;;8.80;87.04
9672;BME280;4874;43.568;27.824;2023-02-14T12:06:40;99948.72;;;8.90;88.80
9672;BME280;4874;43.568;27.824;2023-02-14T12:12:02;99940.38;;;8.35;87.81
9672;BME280;4874;43.568;27.824;2023-02-14T12:14:32;99942.56;;;8.53;86.98
9672;BME280;4874;43.568;27.824;2023-02-14T12:17:01;99945.31;;;8.26;87.54
9672;BME280;4874;43.568;27.824;2023-02-14T12:20:11;99935.81;;;8.24;89.63
9672;BME280;4874;43.568;27.824;2023-02-14T12:22:49;99929.97;;;8.19;92.36
9672;BME280;4874;43.568;27.824;2023-02-14T12:25:24;99933.47;;;8.32;89.92
9672;BME280;4874;43.568;27.824;2023-02-14T12:27:59;99927.84;;;8.37;90.66
9672;BME280;4874;43.568;27.824;2023-02-14T12:30:30;99921.94;;;8.46;86.79
9672;BME280;4874;43.568;27.824;2023-02-14T12:32:58;99913.03;;;8.21;87.30
9672;BME280;4874;43.568;27.824;2023-02-14T12:36:01;99915.03;;;8.18;87.71
9672;BME280;4874;43.568;27.824;2023-02-14T12:57:42;99901.63;;;9.18;80.13
9672;BME280;4874;43.568;27.824;2023-02-14T13:00:35;99900.91;;;9.04;77.22
9672;BME280;4874;43.568;27.824;2023-02-14T13:03:22;99895.88;;;8.88;79.99
9672;BME280;4874;43.568;27.824;2023-02-14T13:06:00;99887.25;;;8.74;81.64
9672;BME280;4874;43.568;27.824;2023-02-14T13:08:47;99902.19;;;8.26;84.91
9672;BME280;4874;43.568;27.824;2023-02-14T13:22:17;99895.34;;;8.60;92.26
9672;BME280;4874;43.568;27.824;2023-02-14T13:24:48;99890.91;;;8.96;89.81
9672;BME280;4874;43.568;27.824;2023-02-14T13:27:25;99887.94;;;9.12;89.12
9672;BME280;4874;43.568;27.824;2023-02-14T13:32:30;99893.72;;;9.06;88.98
9672;BME280;4874;43.568;27.824;2023-02-14T13:34:59;99890.41;;;9.15;87.15
9672;BME280;4874;43.568;27.824;2023-02-14T13:37:27;99870.03;;;8.92;88.83
9672;BME280;4874;43.568;27.824;2023-02-14T13:40:00;99894.56;;;8.70;88.87
9672;BME280;4874;43.568;27.824;2023-02-14T13:51:03;99880.59;;;8.68;94.93
9672;BME280;4874;43.568;27.824;2023-02-14T13:53:48;99855.16;;;8.78;96.15
9672;BME280;4874;43.568;27.824;2023-02-14T14:22:48;99849.34;;;7.87;100.00
9672;BME280;4874;43.568;27.824;2023-02-14T14:25:38;99845.44;;;8.05;100.00
9672;BME280;4874;43.568;27.824;2023-02-14T14:28:16;99846.19;;;8.07;100.00
9672;BME280;4874;43.568;27.824;2023-02-14T14:30:44;99859.00;;;7.88;100.00
9672;BME280;4874;43.568;27.824;2023-02-14T14:35:51;99831.28;;;7.81;100.00
9672;BME280;4874;43.568;27.824;2023-02-14T14:38:19;99852.31;;;8.07;100.00
9672;BME280;4874;43.568;27.824;2023-02-14T14:40:45;99846.53;;;7.90;100.00
9672;BME280;4874;43.568;27.824;2023-02-14T14:43:26;99841.34;;;7.88;100.00
9672;BME280;4874;43.568;27.824;2023-02-14T14:45:56;99835.72;;;7.80;100.00
9672;BME280;4874;43.568;27.824;2023-02-14T14:48:37;99830.94;;;7.85;100.00
9672;BME280;4874;43.568;27.824;2023-02-14T14:51:06;99835.38;;;8.22;100.00
9672;BME280;4874;43.568;27.824;2023-02-14T14:53:46;99853.25;;;7.44;100.00
9672;BME280;4874;43.568;27.824;2023-02-14T14:56:20;99846.19;;;8.32;100.00
9672;BME280;4874;43.568;27.824;2023-02-14T14:58:47;99846.53;;;7.90;100.00
9672;BME280;4874;43.568;27.824;2023-02-14T15:06:40;99856.22;;;8.14;100.00
9672;BME280;4874;43.568;27.824;2023-02-14T15:09:15;99854.88;;;8.09;100.00
9672;BME280;4874;43.568;27.824;2023-02-14T15:11:45;99859.59;;;8.16;100.00
9672;BME280;4874;43.568;27.824;2023-02-14T15:14:34;99826.63;;;7.84;100.00
9672;BME280;4874;43.568;27.824;2023-02-14T15:17:25;99858.25;;;7.98;100.00
9672;BME280;4874;43.568;27.824;2023-02-14T15:20:06;99852.25;;;7.20;100.00
9672;BME280;4874;43.568;27.824;2023-02-14T15:22:42;99853.16;;;7.18;100.00
9672;BME280;4874;43.568;27.824;2023-02-14T15:25:18;99854.41;;;7.13;100.00
9672;BME280;4874;43.568;27.824;2023-02-14T15:27:45;99852.75;;;7.64;100.00
9672;BME280;4874;43.568;27.824;2023-02-14T15:32:49;99847.41;;;6.99;100.00
9672;BME280;4874;43.568;27.824;2023-02-14T15:35:21;99857.56;;;6.79;100.00
9672;BME280;4874;43.568;27.824;2023-02-14T15:37:50;99864.13;;;6.59;100.00
9672;BME280;4874;43.568;27.824;2023-02-14T15:40:28;99882.16;;;6.79;100.00
9672;BME280;4874;43.568;27.824;2023-02-14T15:45:53;99872.28;;;6.69;100.00
9672;BME280;4874;43.568;27.824;2023-02-14T15:48:30;99881.50;;;6.76;100.00
9672;BME280;4874;43.568;27.824;2023-02-14T15:51:03;99885.00;;;6.76;100.00
9672;BME280;4874;43.568;27.824;2023-02-14T15:53:41;99892.66;;;6.67;100.00
9672;BME280;4874;43.568;27.824;2023-02-14T15:59:20;99886.94;;;6.46;100.00
9672;BME280;4874;43.568;27.824;2023-02-14T16:05:03;99904.19;;;7.19;100.00
9672;BME280;4874;43.568;27.824;2023-02-14T16:07:30;99902.75;;;6.46;100.00
9672;BME280;4874;43.568;27.824;2023-02-14T16:12:42;99912.47;;;6.32;100.00
9672;BME280;4874;43.568;27.824;2023-02-14T16:15:19;99909.59;;;6.22;100.00